createdAt,value
2017-04-12T00:00:53.069Z,70.60
2017-04-12T00:01:52.412Z,70.70
2017-04-12T00:02:54.590Z,70.50
2017-04-12T00:03:54.281Z,70.50
2017-04-12T00:04:53.651Z,70.30
2017-04-12T00:05:55.928Z,70.20
2017-04-12T00:06:56.521Z,70.00
2017-04-12T00:07:55.855Z,70.10
2017-04-12T00:08:58.773Z,70.00
2017-04-12T00:09:58.815Z,69.60
2017-04-12T00:10:58.186Z,69.30
2017-04-12T00:11:58.895Z,69.40
2017-04-12T00:13:00.162Z,69.40
2017-04-12T00:13:59.933Z,69.50
2017-04-12T00:14:59.321Z,69.80
2017-04-12T00:15:58.798Z,69.50
2017-04-12T00:16:59.199Z,69.70
2017-04-12T00:17:58.565Z,69.70
2017-04-12T00:18:57.967Z,69.50
2017-04-12T00:19:58.401Z,69.40
2017-04-12T00:20:57.825Z,69.20
2017-04-12T00:21:57.193Z,69.00
2017-04-12T00:22:56.654Z,69.20
2017-04-12T00:23:55.991Z,68.60
2017-04-12T00:24:56.122Z,69.40
2017-04-12T00:25:55.566Z,68.60
2017-04-12T00:26:55.041Z,68.40
2017-04-12T00:27:55.174Z,68.30
2017-04-12T00:28:58.798Z,68.20
2017-04-12T00:29:58.880Z,68.10
2017-04-12T00:30:58.593Z,69.10
2017-04-12T00:31:58.917Z,68.00
2017-04-12T00:32:58.295Z,68.20
2017-04-12T00:34:01.321Z,68.00
2017-04-12T00:35:01.021Z,68.10
2017-04-12T00:36:00.425Z,68.00
2017-04-12T00:36:59.839Z,68.00
2017-04-12T00:37:59.209Z,68.40
2017-04-12T00:38:59.276Z,68.40
2017-04-12T00:39:58.638Z,68.60
2017-04-12T00:40:58.709Z,68.70
2017-04-12T00:42:04.978Z,69.00
2017-04-12T00:43:04.344Z,69.30
2017-04-12T00:44:03.676Z,69.60
2017-04-12T00:45:03.101Z,69.90
2017-04-12T00:46:03.046Z,70.00
2017-04-12T00:47:03.525Z,70.20
2017-04-12T00:48:03.186Z,70.30
2017-04-12T00:49:02.469Z,70.40
2017-04-12T00:50:05.434Z,70.50
2017-04-12T00:51:05.148Z,70.50
2017-04-12T00:52:04.941Z,70.70
2017-04-12T00:53:05.493Z,70.70
2017-04-12T00:54:05.069Z,70.70
2017-04-12T00:55:04.918Z,70.80
2017-04-12T00:56:04.219Z,71.20
2017-04-12T00:57:04.547Z,72.00
2017-04-12T00:58:03.877Z,71.40
2017-04-12T00:59:03.214Z,71.30
2017-04-12T01:00:02.541Z,71.30
2017-04-12T01:01:02.316Z,71.40
2017-04-12T01:02:02.726Z,71.30
2017-04-12T01:03:03.035Z,71.40
2017-04-12T01:04:04.545Z,71.50
2017-04-12T01:05:03.919Z,71.40
2017-04-12T01:06:03.685Z,71.40
2017-04-12T01:07:03.058Z,71.40
2017-04-12T01:08:02.405Z,71.50
2017-04-12T01:09:01.781Z,71.40
2017-04-12T01:10:02.253Z,71.10
2017-04-12T01:11:02.485Z,70.60
2017-04-12T01:12:01.887Z,70.50
2017-04-12T01:13:01.241Z,70.40
2017-04-12T01:14:00.713Z,70.20
2017-04-12T01:15:00.121Z,70.20
2017-04-12T01:16:02.703Z,70.10
2017-04-12T01:17:02.082Z,69.70
2017-04-12T01:18:01.484Z,69.90
2017-04-12T01:19:00.841Z,69.90
2017-04-12T01:20:00.864Z,69.70
2017-04-12T01:21:00.184Z,69.50
2017-04-12T01:21:59.612Z,69.70
2017-04-12T01:22:59.012Z,69.60
2017-04-12T01:23:59.156Z,69.50
2017-04-12T01:24:59.201Z,69.80
2017-04-12T01:25:58.693Z,69.90
2017-04-12T01:26:58.078Z,69.90
2017-04-12T01:27:57.599Z,70.00
2017-04-12T01:28:57.536Z,70.10
2017-04-12T01:29:56.944Z,70.50
2017-04-12T01:30:56.281Z,70.50
2017-04-12T01:31:55.701Z,70.50
2017-04-12T01:32:55.772Z,70.80
2017-04-12T01:33:55.147Z,70.80
2017-04-12T01:34:54.566Z,71.40
2017-04-12T01:35:53.892Z,71.30
2017-04-12T01:36:53.306Z,71.30
2017-04-12T01:37:53.590Z,71.30
2017-04-12T01:38:56.328Z,71.20
2017-04-12T01:39:56.081Z,71.20
2017-04-12T01:40:57.516Z,71.20
2017-04-12T01:41:57.729Z,71.20
2017-04-12T01:42:58.186Z,71.20
2017-04-12T01:43:59.760Z,71.30
2017-04-12T01:45:00.148Z,71.20
2017-04-12T01:46:00.132Z,71.10
2017-04-12T01:47:00.155Z,71.10
2017-04-12T01:47:59.575Z,71.20
2017-04-12T01:48:58.917Z,71.10
2017-04-12T01:49:58.292Z,71.10
2017-04-12T01:50:57.630Z,71.10
2017-04-12T01:51:57.762Z,71.50
2017-04-12T01:52:57.113Z,71.10
2017-04-12T01:53:56.469Z,71.60
2017-04-12T01:54:56.629Z,71.50
2017-04-12T01:55:55.969Z,71.70
2017-04-12T01:56:55.374Z,71.90
2017-04-12T01:57:54.729Z,72.10
2017-04-12T01:58:54.146Z,72.20
2017-04-12T01:59:53.539Z,72.60
2017-04-12T02:00:52.858Z,72.60
2017-04-12T02:01:52.245Z,72.70
2017-04-12T02:02:51.697Z,72.70
2017-04-12T02:03:51.132Z,72.80
2017-04-12T02:04:50.547Z,73.00
2017-04-12T02:05:49.950Z,72.90
2017-04-12T02:06:49.353Z,72.50
2017-04-12T02:07:49.572Z,72.50
2017-04-12T02:08:49.718Z,72.10
2017-04-12T02:09:49.165Z,72.10
2017-04-12T02:10:48.646Z,72.20
2017-04-12T02:11:48.119Z,72.40
2017-04-12T02:12:47.561Z,72.70
2017-04-12T02:13:47.726Z,72.80
2017-04-12T02:14:47.398Z,72.80
2017-04-12T02:15:46.870Z,73.00
2017-04-12T02:16:48.690Z,73.20
2017-04-12T02:17:48.779Z,73.30
2017-04-12T02:18:49.094Z,73.50
2017-04-12T02:19:48.581Z,73.60
2017-04-12T02:20:48.033Z,73.80
2017-04-12T02:21:47.407Z,74.20
2017-04-12T02:22:46.947Z,74.50
2017-04-12T02:23:46.759Z,74.50
2017-04-12T02:24:46.165Z,74.40
2017-04-12T02:25:45.630Z,74.40
2017-04-12T02:26:45.199Z,74.60
2017-04-12T02:27:44.606Z,74.90
2017-04-12T02:28:43.975Z,75.10
2017-04-12T02:29:43.384Z,75.20
2017-04-12T02:30:42.876Z,75.50
2017-04-12T02:31:42.331Z,75.30
2017-04-12T02:32:41.980Z,75.40
2017-04-12T02:33:41.371Z,75.90
2017-04-12T02:34:40.784Z,76.40
2017-04-12T02:35:40.262Z,76.60
2017-04-12T02:36:39.625Z,76.70
2017-04-12T02:37:39.045Z,76.80
2017-04-12T02:38:38.457Z,77.00
2017-04-12T02:39:37.877Z,77.10
2017-04-12T02:40:39.272Z,77.90
2017-04-12T02:41:38.713Z,78.40
2017-04-12T02:42:38.160Z,78.50
2017-04-12T02:43:37.847Z,78.10
2017-04-12T02:44:37.583Z,77.90
2017-04-12T02:45:36.932Z,77.50
2017-04-12T02:46:36.397Z,77.30
2017-04-12T02:47:35.837Z,77.10
2017-04-12T02:48:35.352Z,76.90
2017-04-12T02:49:34.862Z,76.80
2017-04-12T02:50:34.324Z,77.00
2017-04-12T02:51:33.715Z,77.20
2017-04-12T02:52:33.038Z,77.00
2017-04-12T02:53:32.783Z,77.00
2017-04-12T02:54:33.187Z,77.00
2017-04-12T02:55:32.641Z,76.90
2017-04-12T02:56:32.202Z,76.80
2017-04-12T02:57:31.582Z,76.90
2017-04-12T02:58:31.008Z,76.80
2017-04-12T02:59:30.371Z,76.90
2017-04-12T03:00:29.761Z,76.80
2017-04-12T03:01:29.139Z,76.70
2017-04-12T03:02:28.609Z,76.70
2017-04-12T03:03:28.026Z,77.10
2017-04-12T03:04:27.358Z,77.30
2017-04-12T03:05:26.989Z,76.90
2017-04-12T03:06:26.437Z,76.90
2017-04-12T03:07:25.770Z,76.60
2017-04-12T03:08:25.059Z,76.30
2017-04-12T03:09:24.360Z,76.10
2017-04-12T03:10:23.671Z,76.20
2017-04-12T03:11:23.064Z,76.60
2017-04-12T03:12:22.475Z,76.60
2017-04-12T03:13:21.877Z,77.10
2017-04-12T03:14:21.292Z,78.00
2017-04-12T03:15:20.613Z,77.30
2017-04-12T03:16:20.070Z,77.80
2017-04-12T03:17:19.498Z,77.40
2017-04-12T03:18:18.841Z,77.30
2017-04-12T03:19:24.810Z,77.10
2017-04-12T03:20:24.154Z,77.10
2017-04-12T03:21:23.813Z,77.10
2017-04-12T03:22:23.134Z,77.20
2017-04-12T03:23:22.492Z,77.30
2017-04-12T03:24:22.792Z,76.80
2017-04-12T03:25:22.193Z,76.80
2017-04-12T03:26:21.556Z,76.80
2017-04-12T03:27:21.025Z,77.00
2017-04-12T03:28:21.126Z,77.30
2017-04-12T03:29:20.503Z,77.50
2017-04-12T03:30:20.188Z,77.80
2017-04-12T03:31:19.582Z,77.90
2017-04-12T03:32:19.254Z,77.90
2017-04-12T03:33:18.589Z,77.90
2017-04-12T03:34:17.908Z,78.00
2017-04-12T03:35:17.243Z,78.20
2017-04-12T03:36:16.600Z,78.10
2017-04-12T03:37:15.960Z,78.00
2017-04-12T03:38:15.383Z,77.50
2017-04-12T03:39:15.427Z,77.90
2017-04-12T03:40:14.859Z,78.30
2017-04-12T03:41:14.260Z,77.80
2017-04-12T03:42:13.639Z,77.90
2017-04-12T03:43:13.007Z,78.10
2017-04-12T03:44:12.369Z,77.30
2017-04-12T03:45:11.737Z,77.60
2017-04-12T03:46:11.149Z,77.00
2017-04-12T03:47:11.327Z,76.50
2017-04-12T03:48:10.961Z,76.30
2017-04-12T03:49:10.339Z,76.00
2017-04-12T03:50:09.951Z,75.50
2017-04-12T03:51:09.418Z,75.60
2017-04-12T03:52:08.885Z,75.40
2017-04-12T03:53:08.205Z,75.50
2017-04-12T03:54:07.654Z,75.20
2017-04-12T03:55:08.025Z,75.20
2017-04-12T03:56:07.501Z,75.20
2017-04-12T03:57:06.853Z,75.20
2017-04-12T03:58:06.994Z,75.10
2017-04-12T03:59:06.328Z,75.00
2017-04-12T04:00:05.693Z,75.10
2017-04-12T04:01:05.110Z,75.40
2017-04-12T04:02:04.473Z,75.30
2017-04-12T04:03:03.960Z,75.40
2017-04-12T04:04:03.445Z,75.60
2017-04-12T04:05:03.359Z,75.50
2017-04-12T04:06:02.737Z,75.70
2017-04-12T04:07:02.719Z,75.80
2017-04-12T04:08:02.031Z,76.10
2017-04-12T04:09:01.393Z,76.20
2017-04-12T04:10:00.762Z,76.30
2017-04-12T04:11:00.315Z,76.40
2017-04-12T04:11:59.638Z,76.40
2017-04-12T04:12:59.007Z,76.30
2017-04-12T04:13:58.282Z,76.40
2017-04-12T04:14:57.592Z,76.70
2017-04-12T04:15:57.026Z,76.80
2017-04-12T04:16:56.606Z,76.50
2017-04-12T04:17:55.936Z,76.50
2017-04-12T04:18:56.189Z,76.60
2017-04-12T04:19:55.586Z,76.40
2017-04-12T04:20:54.935Z,76.40
2017-04-12T04:21:59.669Z,76.10
2017-04-12T04:22:58.967Z,76.00
2017-04-12T04:23:58.633Z,76.00
2017-04-12T04:24:57.963Z,76.20
2017-04-12T04:25:57.291Z,75.90
2017-04-12T04:26:56.619Z,75.90
2017-04-12T04:27:55.989Z,75.80
2017-04-12T04:28:55.292Z,75.60
2017-04-12T04:29:56.397Z,75.50
2017-04-12T04:30:55.869Z,75.00
2017-04-12T04:31:55.247Z,74.90
2017-04-12T04:32:55.141Z,74.70
2017-04-12T04:33:54.479Z,74.70
2017-04-12T04:34:53.752Z,74.50
2017-04-12T04:35:53.086Z,74.40
2017-04-12T04:36:52.429Z,73.80
2017-04-12T04:37:51.791Z,73.90
2017-04-12T04:38:51.902Z,73.80
2017-04-12T04:39:51.245Z,73.90
2017-04-12T04:40:50.626Z,73.70
2017-04-12T04:41:49.949Z,73.60
2017-04-12T04:42:49.322Z,73.90
2017-04-12T04:43:48.949Z,74.00
2017-04-12T04:44:48.344Z,73.70
2017-04-12T04:45:47.751Z,73.80
2017-04-12T04:46:47.860Z,73.90
2017-04-12T04:47:47.506Z,74.00
2017-04-12T04:48:46.858Z,74.10
2017-04-12T04:49:46.297Z,74.40
2017-04-12T04:50:45.606Z,74.80
2017-04-12T04:51:45.016Z,74.80
2017-04-12T04:52:44.362Z,74.70
2017-04-12T04:53:43.696Z,74.80
2017-04-12T04:54:43.089Z,75.00
2017-04-12T04:55:42.417Z,74.90
2017-04-12T04:56:41.769Z,74.90
2017-04-12T04:57:41.850Z,75.20
2017-04-12T04:58:41.237Z,75.50
2017-04-12T04:59:41.218Z,75.50
2017-04-12T05:00:40.627Z,75.50
2017-04-12T05:01:39.912Z,75.80
2017-04-12T05:02:39.544Z,75.70
2017-04-12T05:03:38.887Z,75.40
2017-04-12T05:04:38.229Z,74.80
2017-04-12T05:05:37.558Z,74.70
2017-04-12T05:06:36.852Z,73.70
2017-04-12T05:07:36.155Z,73.20
2017-04-12T05:08:35.435Z,73.00
2017-04-12T05:09:35.517Z,72.00
2017-04-12T05:10:34.895Z,72.30
2017-04-12T05:11:34.281Z,71.90
2017-04-12T05:12:33.655Z,72.00
2017-04-12T05:13:33.045Z,71.90
2017-04-12T05:14:32.462Z,71.30
2017-04-12T05:15:31.777Z,71.50
2017-04-12T05:16:31.137Z,71.40
2017-04-12T05:17:30.498Z,71.80
2017-04-12T05:18:29.900Z,70.50
2017-04-12T05:19:29.250Z,70.10
2017-04-12T05:20:28.607Z,69.60
2017-04-12T05:21:27.925Z,69.60
2017-04-12T05:22:27.241Z,69.40
2017-04-12T05:23:26.592Z,69.40
2017-04-12T05:24:25.938Z,69.20
2017-04-12T05:25:25.266Z,68.80
2017-04-12T05:26:24.620Z,68.70
2017-04-12T05:27:24.693Z,67.90
2017-04-12T05:28:24.091Z,67.30
2017-04-12T05:29:23.934Z,67.20
2017-04-12T05:30:23.954Z,66.70
2017-04-12T05:31:23.250Z,66.50
2017-04-12T05:32:22.688Z,66.80
2017-04-12T05:33:22.046Z,66.90
2017-04-12T05:34:21.409Z,66.60
2017-04-12T05:35:20.745Z,67.20
2017-04-12T05:36:20.024Z,67.00
2017-04-12T05:37:19.335Z,67.00
2017-04-12T05:38:19.455Z,67.60
2017-04-12T05:39:18.841Z,66.20
2017-04-12T05:40:18.453Z,66.80
2017-04-12T05:41:17.778Z,66.20
2017-04-12T05:42:17.196Z,65.60
2017-04-12T05:43:17.421Z,65.80
2017-04-12T05:44:16.784Z,65.90
2017-04-12T05:45:16.113Z,65.80
2017-04-12T05:46:15.484Z,65.50
2017-04-12T05:47:14.866Z,66.20
2017-04-12T05:48:14.165Z,65.20
2017-04-12T05:49:13.513Z,64.60
2017-04-12T05:50:12.883Z,65.10
2017-04-12T05:51:13.001Z,64.50
2017-04-12T05:52:12.389Z,64.60
2017-04-12T05:53:11.727Z,63.90
2017-04-12T05:54:11.123Z,64.30
2017-04-12T05:55:10.435Z,64.80
2017-04-12T05:56:09.775Z,64.20
2017-04-12T05:57:09.077Z,62.80
2017-04-12T05:58:08.437Z,63.20
2017-04-12T05:59:07.772Z,63.30
2017-04-12T06:00:07.101Z,62.60
2017-04-12T06:01:06.466Z,62.50
2017-04-12T06:02:05.768Z,62.40
2017-04-12T06:03:05.138Z,62.40
2017-04-12T06:04:04.417Z,61.40
2017-04-12T06:05:03.781Z,61.30
2017-04-12T06:06:03.095Z,60.90
2017-04-12T06:07:02.429Z,60.90
2017-04-12T06:08:01.966Z,61.10
2017-04-12T06:09:01.357Z,61.20
2017-04-12T06:10:01.484Z,61.60
2017-04-12T06:11:01.551Z,61.00
2017-04-12T06:12:01.375Z,60.30
2017-04-12T06:13:00.723Z,60.00
2017-04-12T06:14:00.030Z,60.00
2017-04-12T06:14:59.338Z,60.00
2017-04-12T06:15:58.682Z,60.10
2017-04-12T06:16:58.178Z,60.30
2017-04-12T06:17:58.264Z,60.10
2017-04-12T06:18:57.621Z,60.20
2017-04-12T06:19:57.004Z,60.20
2017-04-12T06:20:56.523Z,60.00
2017-04-12T06:21:56.113Z,59.30
2017-04-12T06:22:56.122Z,60.00
2017-04-12T06:23:55.656Z,59.80
2017-04-12T06:24:54.946Z,59.10
2017-04-12T06:25:54.277Z,59.00
2017-04-12T06:26:53.645Z,59.00
2017-04-12T06:27:52.938Z,58.60
2017-04-12T06:28:52.284Z,58.40
2017-04-12T06:29:51.594Z,57.80
2017-04-12T06:30:50.886Z,57.50
2017-04-12T06:31:50.190Z,57.20
2017-04-12T06:32:49.588Z,56.60
2017-04-12T06:33:48.987Z,56.60
2017-04-12T06:34:49.028Z,56.70
2017-04-12T06:35:48.697Z,56.60
2017-04-12T06:36:48.039Z,56.60
2017-04-12T06:37:47.378Z,56.70
2017-04-12T06:38:46.720Z,56.70
2017-04-12T06:39:46.771Z,56.30
2017-04-12T06:40:46.077Z,56.00
2017-04-12T06:41:45.346Z,56.50
2017-04-12T06:42:44.687Z,56.70
2017-04-12T06:43:44.060Z,56.80
2017-04-12T06:44:43.353Z,56.30
2017-04-12T06:45:43.394Z,55.80
2017-04-12T06:46:42.704Z,55.80
2017-04-12T06:47:41.985Z,55.50
2017-04-12T06:48:41.324Z,56.00
2017-04-12T06:49:41.475Z,56.50
2017-04-12T06:50:41.222Z,56.10
2017-04-12T06:51:40.503Z,55.50
2017-04-12T06:52:39.846Z,55.50
2017-04-12T06:53:39.181Z,55.60
2017-04-12T06:54:38.475Z,55.70
2017-04-12T06:55:38.117Z,54.00
2017-04-12T06:56:37.443Z,54.70
2017-04-12T06:57:36.799Z,54.60
2017-04-12T06:58:36.088Z,54.40
2017-04-12T06:59:35.494Z,53.50
2017-04-12T07:00:34.842Z,53.20
2017-04-12T07:01:34.314Z,53.80
2017-04-12T07:02:34.560Z,53.20
2017-04-12T07:03:34.616Z,52.80
2017-04-12T07:04:34.089Z,52.50
2017-04-12T07:05:34.024Z,53.20
2017-04-12T07:06:33.400Z,52.50
2017-04-12T07:07:32.699Z,53.10
2017-04-12T07:08:32.761Z,53.20
2017-04-12T07:09:32.050Z,53.20
2017-04-12T07:10:31.381Z,53.40
2017-04-12T07:11:30.745Z,53.20
2017-04-12T07:12:30.067Z,52.90
2017-04-12T07:13:29.439Z,53.30
2017-04-12T07:14:28.773Z,53.20
2017-04-12T07:15:29.246Z,52.80
2017-04-12T07:16:28.645Z,53.30
2017-04-12T07:17:28.024Z,52.50
2017-04-12T07:18:27.395Z,52.40
2017-04-12T07:19:26.714Z,53.60
2017-04-12T07:20:26.045Z,53.90
2017-04-12T07:21:25.388Z,53.30
2017-04-12T07:22:24.909Z,53.20
2017-04-12T07:23:24.213Z,53.20
2017-04-12T07:24:23.507Z,53.20
2017-04-12T07:25:22.841Z,53.20
2017-04-12T07:26:22.227Z,53.30
2017-04-12T07:27:21.577Z,53.30
2017-04-12T07:28:21.757Z,53.50
2017-04-12T07:29:21.140Z,53.00
2017-04-12T07:30:20.541Z,52.70
2017-04-12T07:31:19.897Z,53.10
2017-04-12T07:32:19.285Z,53.00
2017-04-12T07:33:18.708Z,53.20
2017-04-12T07:34:18.152Z,52.40
2017-04-12T07:35:17.516Z,51.80
2017-04-12T07:36:16.871Z,51.60
2017-04-12T07:37:16.245Z,52.90
2017-04-12T07:38:15.581Z,51.30
2017-04-12T07:39:14.934Z,51.50
2017-04-12T07:40:14.227Z,50.70
2017-04-12T07:41:13.553Z,50.80
2017-04-12T07:42:12.888Z,50.90
2017-04-12T07:43:12.292Z,51.00
2017-04-12T07:44:12.674Z,50.60
2017-04-12T07:45:12.368Z,50.60
2017-04-12T07:46:18.205Z,50.70
2017-04-12T07:47:18.318Z,50.70
2017-04-12T07:48:17.622Z,49.70
2017-04-12T07:49:17.317Z,50.60
2017-04-12T07:50:16.628Z,50.00
2017-04-12T07:51:15.931Z,49.60
2017-04-12T07:52:15.278Z,49.80
2017-04-12T07:53:14.557Z,49.70
2017-04-12T07:54:14.674Z,49.70
2017-04-12T07:55:14.891Z,48.80
2017-04-12T07:56:14.260Z,48.90
2017-04-12T07:57:13.561Z,48.60
2017-04-12T07:58:13.389Z,48.30
2017-04-12T07:59:12.683Z,49.00
2017-04-12T08:00:12.362Z,49.00
2017-04-12T08:01:11.652Z,48.20
2017-04-12T08:02:10.996Z,48.00
2017-04-12T08:03:10.470Z,47.90
2017-04-12T08:04:09.761Z,46.90
2017-04-12T08:05:09.046Z,46.90
2017-04-12T08:06:08.405Z,47.50
2017-04-12T08:07:07.804Z,47.70
2017-04-12T08:08:07.193Z,47.30
2017-04-12T08:09:06.615Z,46.70
2017-04-12T08:10:06.042Z,46.50
2017-04-12T08:11:06.589Z,46.70
2017-04-12T08:12:05.993Z,46.60
2017-04-12T08:13:06.026Z,46.30
2017-04-12T08:14:05.381Z,45.90
2017-04-12T08:15:04.661Z,45.70
2017-04-12T08:16:04.760Z,45.40
2017-04-12T08:17:04.210Z,45.80
2017-04-12T08:18:03.590Z,45.90
2017-04-12T08:19:03.013Z,46.40
2017-04-12T08:20:02.446Z,47.20
2017-04-12T08:21:01.803Z,46.00
2017-04-12T08:22:01.199Z,45.70
2017-04-12T08:23:00.570Z,45.60
2017-04-12T08:23:59.962Z,46.10
2017-04-12T08:24:59.266Z,45.70
2017-04-12T08:25:58.611Z,45.80
2017-04-12T08:26:57.973Z,44.90
2017-04-12T08:27:57.297Z,44.20
2017-04-12T08:28:56.714Z,43.70
2017-04-12T08:29:56.100Z,44.50
2017-04-12T08:30:56.291Z,43.50
2017-04-12T08:31:55.578Z,43.90
2017-04-12T08:32:54.988Z,44.40
2017-04-12T08:33:54.588Z,44.50
2017-04-12T08:34:54.032Z,44.40
2017-04-12T08:35:53.396Z,43.90
2017-04-12T08:36:52.719Z,44.20
2017-04-12T08:37:52.060Z,43.80
2017-04-12T08:38:51.419Z,44.50
2017-04-12T08:39:51.766Z,44.20
2017-04-12T08:40:51.062Z,43.90
2017-04-12T08:41:50.397Z,42.70
2017-04-12T08:42:49.900Z,42.30
2017-04-12T08:43:49.201Z,42.70
2017-04-12T08:44:48.498Z,42.70
2017-04-12T08:45:47.882Z,43.00
2017-04-12T08:46:47.255Z,43.60
2017-04-12T08:47:46.570Z,42.50
2017-04-12T08:48:45.888Z,42.50
2017-04-12T08:49:45.345Z,43.30
2017-04-12T08:50:44.847Z,42.60
2017-04-12T08:51:44.388Z,43.10
2017-04-12T08:52:43.854Z,42.40
2017-04-12T08:53:43.253Z,43.00
2017-04-12T08:54:42.628Z,42.80
2017-04-12T08:55:42.186Z,42.70
2017-04-12T08:56:41.531Z,42.40
2017-04-12T08:57:41.393Z,42.80
2017-04-12T08:58:40.721Z,43.40
2017-04-12T08:59:40.910Z,43.50
2017-04-12T09:00:40.341Z,43.80
2017-04-12T09:01:40.325Z,43.30
2017-04-12T09:02:39.907Z,42.10
2017-04-12T09:03:39.300Z,43.10
2017-04-12T09:04:38.704Z,43.60
2017-04-12T09:05:38.162Z,43.40
2017-04-12T09:06:43.081Z,42.30
2017-04-12T09:07:43.175Z,43.00
2017-04-12T09:08:42.571Z,42.90
2017-04-12T09:09:42.735Z,42.40
2017-04-12T09:10:42.634Z,43.40
2017-04-12T09:11:42.185Z,43.60
2017-04-12T09:12:41.986Z,42.70
2017-04-12T09:13:41.367Z,43.00
2017-04-12T09:14:41.702Z,43.20
2017-04-12T09:15:41.053Z,42.70
2017-04-12T09:16:40.398Z,43.10
2017-04-12T09:17:39.849Z,43.30
2017-04-12T09:18:39.181Z,43.00
2017-04-12T09:19:38.688Z,43.60
2017-04-12T09:20:38.085Z,43.90
2017-04-12T09:21:37.400Z,44.20
2017-04-12T09:22:36.732Z,44.00
2017-04-12T09:23:36.089Z,43.40
2017-04-12T09:24:35.458Z,43.60
2017-04-12T09:25:34.824Z,42.90
2017-04-12T09:26:34.929Z,43.10
2017-04-12T09:27:34.504Z,43.00
2017-04-12T09:28:33.872Z,42.60
2017-04-12T09:29:33.197Z,43.00
2017-04-12T09:30:33.594Z,41.90
2017-04-12T09:31:32.922Z,42.00
2017-04-12T09:32:32.618Z,41.80
2017-04-12T09:33:32.033Z,42.30
2017-04-12T09:34:31.698Z,40.80
2017-04-12T09:35:31.026Z,40.60
2017-04-12T09:36:30.388Z,40.60
2017-04-12T09:37:29.735Z,40.80
2017-04-12T09:38:30.674Z,40.20
2017-04-12T09:39:30.046Z,38.40
2017-04-12T09:40:29.492Z,39.30
2017-04-12T09:41:28.826Z,38.40
2017-04-12T09:42:28.192Z,38.40
2017-04-12T09:43:27.550Z,38.50
2017-04-12T09:44:27.632Z,38.80
2017-04-12T09:45:27.140Z,38.10
2017-04-12T09:46:26.483Z,37.70
2017-04-12T09:47:25.796Z,37.70
2017-04-12T09:48:25.162Z,37.90
2017-04-12T09:49:25.205Z,36.30
2017-04-12T09:50:24.537Z,36.00
2017-04-12T09:51:24.181Z,35.90
2017-04-12T09:52:23.535Z,36.00
2017-04-12T09:53:23.046Z,35.30
2017-04-12T09:54:22.456Z,35.00
2017-04-12T09:55:21.992Z,34.40
2017-04-12T09:56:21.398Z,34.10
2017-04-12T09:57:20.790Z,33.70
2017-04-12T09:58:20.132Z,33.60
2017-04-12T09:59:19.868Z,33.10
2017-04-12T10:00:19.236Z,33.90
2017-04-12T10:01:18.693Z,33.30
2017-04-12T10:02:18.097Z,32.80
2017-04-12T10:03:17.531Z,32.40
2017-04-12T10:04:18.034Z,32.90
2017-04-12T10:05:17.483Z,32.30
2017-04-12T10:06:16.831Z,31.90
2017-04-12T10:07:16.211Z,31.90
2017-04-12T10:08:15.638Z,32.10
2017-04-12T10:09:15.136Z,31.50
2017-04-12T10:10:14.520Z,31.10
2017-04-12T10:11:13.836Z,31.10
2017-04-12T10:12:13.254Z,30.50
2017-04-12T10:13:12.702Z,31.10
2017-04-12T10:14:12.066Z,30.30
2017-04-12T10:15:11.470Z,30.70
2017-04-12T10:16:10.821Z,29.90
2017-04-12T10:17:10.217Z,29.90
2017-04-12T10:18:10.369Z,29.60
2017-04-12T10:19:09.811Z,29.80
2017-04-12T10:20:09.201Z,29.70
2017-04-12T10:21:08.619Z,29.60
2017-04-12T10:22:08.314Z,29.40
2017-04-12T10:23:08.510Z,29.40
2017-04-12T10:24:07.866Z,29.60
2017-04-12T10:25:07.303Z,28.50
2017-04-12T10:26:06.975Z,28.50
2017-04-12T10:27:06.334Z,28.30
2017-04-12T10:28:05.845Z,28.10
2017-04-12T10:29:05.202Z,28.00
2017-04-12T10:30:04.510Z,28.60
2017-04-12T10:31:03.907Z,28.60
2017-04-12T10:32:03.767Z,28.30
2017-04-12T10:33:03.160Z,26.90
2017-04-12T10:34:03.068Z,26.90
2017-04-12T10:35:02.412Z,26.70
2017-04-12T10:36:01.780Z,26.70
2017-04-12T10:37:01.361Z,26.90
2017-04-12T10:38:00.674Z,27.40
2017-04-12T10:39:00.077Z,27.30
2017-04-12T10:40:00.127Z,26.90
2017-04-12T10:40:59.697Z,27.00
2017-04-12T10:41:59.276Z,27.30
2017-04-12T10:42:58.900Z,27.60
2017-04-12T10:43:58.240Z,27.30
2017-04-12T10:44:57.612Z,28.00
2017-04-12T10:45:56.988Z,27.20
2017-04-12T10:46:56.534Z,27.20
2017-04-12T10:47:55.966Z,27.00
2017-04-12T10:48:55.328Z,27.00
2017-04-12T10:49:55.394Z,27.50
2017-04-12T10:50:54.791Z,27.50
2017-04-12T10:51:54.128Z,27.70
2017-04-12T10:52:53.499Z,27.20
2017-04-12T10:53:53.142Z,27.60
2017-04-12T10:54:53.282Z,27.10
2017-04-12T10:55:52.611Z,27.40
2017-04-12T10:56:52.881Z,27.60
2017-04-12T10:57:52.156Z,28.20
2017-04-12T10:58:51.533Z,28.10
2017-04-12T10:59:51.023Z,28.00
2017-04-12T11:00:50.387Z,28.50
2017-04-12T11:01:49.797Z,28.80
2017-04-12T11:02:49.107Z,28.40
2017-04-12T11:03:48.433Z,28.00
2017-04-12T11:04:47.721Z,28.30
2017-04-12T11:05:47.113Z,27.40
2017-04-12T11:06:46.441Z,27.70
2017-04-12T11:07:46.437Z,27.60
2017-04-12T11:08:46.691Z,27.70
2017-04-12T11:09:46.927Z,27.80
2017-04-12T11:10:47.716Z,27.40
2017-04-12T11:11:47.141Z,27.00
2017-04-12T11:12:47.200Z,27.60
2017-04-12T11:13:47.346Z,27.10
2017-04-12T11:14:46.714Z,27.50
2017-04-12T11:15:46.235Z,26.60
2017-04-12T11:16:46.318Z,26.60
2017-04-12T11:17:45.642Z,26.10
2017-04-12T11:18:45.049Z,26.80
2017-04-12T11:19:44.445Z,26.60
2017-04-12T11:20:43.740Z,26.80
2017-04-12T11:21:43.358Z,26.90
2017-04-12T11:22:42.658Z,26.60
2017-04-12T11:23:41.978Z,27.30
2017-04-12T11:24:41.401Z,26.60
2017-04-12T11:25:40.712Z,27.30
2017-04-12T11:26:40.877Z,26.50
2017-04-12T11:27:40.261Z,26.70
2017-04-12T11:28:40.371Z,26.50
2017-04-12T11:29:39.637Z,26.70
2017-04-12T11:30:39.368Z,25.80
2017-04-12T11:31:39.850Z,25.80
2017-04-12T11:32:39.260Z,25.70
2017-04-12T11:33:38.587Z,25.50
2017-04-12T11:34:37.921Z,25.70
2017-04-12T11:35:37.234Z,25.90
2017-04-12T11:36:36.825Z,25.70
2017-04-12T11:37:36.262Z,25.90
2017-04-12T11:38:35.638Z,26.20
2017-04-12T11:39:34.979Z,25.90
2017-04-12T11:40:34.362Z,26.60
2017-04-12T11:41:33.661Z,26.10
2017-04-12T11:42:33.091Z,25.80
2017-04-12T11:43:32.470Z,25.90
2017-04-12T11:44:31.816Z,25.70
2017-04-12T11:45:31.147Z,25.80
2017-04-12T11:46:30.493Z,25.40
2017-04-12T11:47:29.888Z,25.80
2017-04-12T11:48:29.793Z,25.50
2017-04-12T11:49:29.478Z,25.60
2017-04-12T11:50:28.802Z,25.30
2017-04-12T11:51:28.251Z,25.50
2017-04-12T11:52:27.607Z,25.20
2017-04-12T11:53:27.180Z,25.10
2017-04-12T11:54:26.540Z,25.70
2017-04-12T11:55:26.340Z,25.60
2017-04-12T11:56:26.506Z,25.40
2017-04-12T11:57:25.898Z,25.20
2017-04-12T11:58:25.211Z,26.10
2017-04-12T11:59:24.489Z,25.20
2017-04-12T12:00:24.602Z,25.90
2017-04-12T12:01:24.045Z,25.50
2017-04-12T12:02:23.457Z,25.30
2017-04-12T12:03:23.553Z,25.10
2017-04-12T12:04:22.882Z,25.10
2017-04-12T12:05:22.341Z,25.20
2017-04-12T12:06:22.769Z,25.10
2017-04-12T12:07:22.157Z,25.20
2017-04-12T12:08:21.562Z,25.30
2017-04-12T12:09:20.945Z,25.40
2017-04-12T12:10:20.376Z,25.20
2017-04-12T12:11:19.718Z,25.00
2017-04-12T12:12:19.063Z,24.90
2017-04-12T12:13:18.433Z,25.30
2017-04-12T12:14:18.539Z,25.30
2017-04-12T12:15:39.529Z,24.70
2017-04-12T12:16:38.786Z,25.00
2017-04-12T12:17:38.314Z,25.30
2017-04-12T12:18:38.312Z,25.10
2017-04-12T12:19:37.557Z,25.40
2017-04-12T12:20:36.783Z,25.10
2017-04-12T12:21:36.089Z,25.80
2017-04-12T12:22:36.052Z,25.80
2017-04-12T12:23:36.392Z,25.60
2017-04-12T12:24:35.662Z,25.90
2017-04-12T12:25:34.917Z,25.30
2017-04-12T12:26:34.150Z,25.60
2017-04-12T12:27:33.388Z,25.80
2017-04-12T12:28:32.652Z,25.70
2017-04-12T12:29:32.597Z,25.90
2017-04-12T12:30:31.902Z,25.70
2017-04-12T12:31:31.161Z,25.80
2017-04-12T12:32:30.413Z,26.00
2017-04-12T12:33:29.635Z,26.10
2017-04-12T12:34:29.593Z,25.80
2017-04-12T12:35:28.876Z,26.10
2017-04-12T12:36:28.104Z,26.10
2017-04-12T12:37:27.324Z,26.20
2017-04-12T12:38:26.561Z,25.80
2017-04-12T12:39:25.800Z,25.80
2017-04-12T12:40:25.090Z,26.10
2017-04-12T12:41:24.340Z,26.20
2017-04-12T12:42:24.654Z,25.50
2017-04-12T12:43:24.724Z,25.40
2017-04-12T12:44:24.009Z,25.30
2017-04-12T12:45:23.347Z,25.60
2017-04-12T12:46:22.553Z,24.40
2017-04-12T12:47:21.805Z,24.90
2017-04-12T12:48:21.057Z,24.90